Kagoshima Kohaku No7 — JD4100 — position and weather

sailwx.info

Track history (hours):
 
Tides and Currents Weather Stations Pressure Air Temp Water Temp Dewpoint Dewpoint Depression Visibility Wind Speed Wind Dir Waves Ship Positions

Kagoshima Kohaku No7

Last reported at 2018-Feb-21 17:54 UTC. Time now 2018-Feb-21 19:26 UTC.
Position N 33°49' E 135°05'.

Length 75 m; draft 2.7 m.

Type: Cargo ship. MMSI: 431008653.

Date/timePositionNaut miles runAvg speedWind from/ knotsBaromVisibWave heightAir tempDewpointWater temp
2018-Feb-21 17:54N 33°49' E 135°05'512.4
2018-Feb-21 17:30N 33°52' E 135°02'612.2
2018-Feb-21 17:00N 33°57' E 134°57'611.8
2018-Feb-21 16:30N 34°01' E 134°52'612.3
2018-Feb-21 15:59N 34°06' E 134°47'612.1
2018-Feb-21 15:28N 34°11' E 134°42'510.5
2018-Feb-21 15:00N 34°15' E 134°39'611.4
2018-Feb-21 14:30N 34°21' E 134°38'612.6
2018-Feb-21 14:00N 34°27' E 134°40'612.7
2018-Feb-21 13:30N 34°33' E 134°42'712.5
2018-Feb-21 12:59N 34°39' E 134°45'5 0.3
2018-Feb-20 19:20N 34°43' E 134°49'0 0.5
2018-Feb-20 19:00N 34°43' E 134°48'0 0.4
2018-Feb-20 18:29N 34°43' E 134°48'1 3.0
2018-Feb-20 18:00N 34°42' E 134°47'0 0.0
2018-Feb-20 17:30N 34°42' E 134°47'0 0.1
2018-Feb-20 17:00N 34°42' E 134°47'0 0.1
2018-Feb-20 16:30N 34°42' E 134°47'0 0.0
2018-Feb-20 16:01N 34°42' E 134°47'0 0.0
2018-Feb-20 15:30N 34°42' E 134°47'2 3.8
2018-Feb-20 15:00N 34°40' E 134°46'611.9
2018-Feb-20 14:30N 34°35' E 134°43'611.9
2018-Feb-20 14:00N 34°29' E 134°41'611.8
2018-Feb-20 13:31N 34°24' E 134°39'612.1
2018-Feb-20 13:00N 34°18' E 134°38'713.3
2018-Feb-20 12:28N 34°12' E 134°42'612.6
2018-Feb-20 12:00N 34°07' E 134°47'612.4
2018-Feb-20 11:29N 34°02' E 134°52'612.8
2018-Feb-20 11:01N 33°58' E 134°57'612.6
2018-Feb-20 10:30N 33°53' E 135°02'114 9.1
2018-Feb-19 21:54N 34°29' E 137°13'511.8
2018-Feb-19 21:30N 34°29' E 137°19'5911.2
2018-Feb-19 16:17N 34°35' E 138°30'511.6
2018-Feb-19 15:53N 34°35' E 138°35'511.4
2018-Feb-19 15:29N 34°35' E 138°41'611.8
2018-Feb-19 14:56N 34°35' E 138°48'510.8
2018-Feb-19 14:30N 34°36' E 138°54'710.4
2018-Feb-19 13:52N 34°39' E 139°01'412.2
2018-Feb-19 13:30N 34°43' E 139°04'612.9
2018-Feb-19 13:00N 34°48' E 139°09'912.1
2018-Feb-19 12:16N 34°55' E 139°16'411.8
2018-Feb-19 11:55N 34°57' E 139°20'511.5
2018-Feb-19 11:30N 34°60' E 139°25'611.2
2018-Feb-19 10:59N 35°03' E 139°31'611.8
2018-Feb-19 10:30N 35°05' E 139°37'612.4
2018-Feb-19 10:00N 35°09' E 139°43'611.8
2018-Feb-19 09:30N 35°14' E 139°46'611.7
2018-Feb-19 09:01N 35°20' E 139°43'611.1
2018-Feb-19 08:31N 35°25' E 139°44'611.7
2018-Feb-19 08:01N 35°29' E 139°50'611.7
2018-Feb-19 07:30N 35°33' E 139°54'612.0
2018-Feb-19 06:59N 35°38' E 139°59'3 0.1
2018-Feb-17 23:27N 35°41' E 139°58'4 7.2
2018-Feb-17 22:57N 35°37' E 139°58'511.2
2018-Feb-17 22:29N 35°33' E 139°55'511.2
2018-Feb-17 22:00N 35°28' E 139°51'611.1
2018-Feb-17 21:30N 35°24' E 139°46'510.5
2018-Feb-17 21:00N 35°19' E 139°44'5 9.9
2018-Feb-17 20:30N 35°15' E 139°47'510.0
2018-Feb-17 20:00N 35°10' E 139°46'510.3
2018-Feb-17 19:30N 35°05' E 139°43'510.6
2018-Feb-17 19:00N 35°02' E 139°38'1311.2
2018-Feb-17 17:52N 34°54' E 139°26'512.1
2018-Feb-17 17:29N 34°51' E 139°21'811.8
2018-Feb-17 16:50N 34°46' E 139°14'711.4
2018-Feb-17 16:14N 34°42' E 139°08'312.1
2018-Feb-17 15:59N 34°40' E 139°05'712.8
2018-Feb-17 15:26N 34°36' E 138°58'612.4
2018-Feb-17 14:59N 34°35' E 138°51'612.0
2018-Feb-17 14:29N 34°35' E 138°44'612.1
2018-Feb-17 13:58N 34°34' E 138°36'612.1
2018-Feb-17 13:30N 34°34' E 138°29'611.9
2018-Feb-17 12:59N 34°34' E 138°22'712.6
2018-Feb-17 12:27N 34°34' E 138°14'813.4
2018-Feb-17 11:53N 34°35' E 138°05'4212.4
2018-Feb-17 08:30N 34°35' E 137°14'3310.9
2018-Feb-17 05:28N 34°10' E 136°48'87 9.0
2018-Feb-16 19:50N 33°50' E 135°06'411.7
2018-Feb-16 19:30N 33°52' E 135°02'611.8
2018-Feb-16 18:59N 33°56' E 134°57'612.1
2018-Feb-16 18:30N 34°01' E 134°53'612.2
2018-Feb-16 18:00N 34°05' E 134°48'812.8
2018-Feb-16 17:25N 34°11' E 134°42'713.6
2018-Feb-16 16:54N 34°17' E 134°38'511.9
2018-Feb-16 16:31N 34°22' E 134°39'611.5
2018-Feb-16 16:00N 34°27' E 134°41'611.7
2018-Feb-16 15:30N 34°33' E 134°42'611.4
2018-Feb-16 15:00N 34°38' E 134°45'6 0.3
2018-Feb-15 18:12N 34°44' E 134°49'1 3.5
2018-Feb-15 17:59N 34°43' E 134°48'2 4.2
2018-Feb-15 17:30N 34°43' E 134°51'0 0.0
2018-Feb-15 09:13N 34°43' E 134°51'0 0.1
2018-Feb-15 09:00N 34°43' E 134°51'0 0.1
2018-Feb-15 08:30N 34°43' E 134°51'0 0.0
2018-Feb-15 08:00N 34°43' E 134°51'0 0.0
2018-Feb-15 07:30N 34°43' E 134°51'0 0.0
2018-Feb-15 07:00N 34°43' E 134°51'0 0.0
2018-Feb-15 06:30N 34°43' E 134°51'0 0.0
2018-Feb-15 06:00N 34°43' E 134°51'0 0.0
2018-Feb-15 05:30N 34°43' E 134°51'2 3.1
2018-Feb-15 05:00N 34°41' E 134°50'5 9.4
2018-Feb-15 04:30N 34°38' E 134°53'510.4
2018-Feb-15 04:00N 34°37' E 134°60'510.3
2018-Feb-15 03:31N 34°35' E 135°05'612.0
2018-Feb-15 03:01N 34°29' E 135°05'612.1
2018-Feb-15 02:31N 34°23' E 135°04'611.5
2018-Feb-15 02:01N 34°17' E 135°04'612.0
2018-Feb-15 01:31N 34°11' E 135°03'612.3
2018-Feb-15 01:00N 34°05' E 135°03'612.2
2018-Feb-15 00:30N 33°59' E 135°03'611.9
2018-Feb-15 00:00N 33°53' E 135°03'97 7.9
2018-Feb-14 11:39N 34°29' E 136°52'213.3
2018-Feb-14 11:30N 34°30' E 136°51'611.4
2018-Feb-14 11:00N 34°36' E 136°48'612.7
2018-Feb-14 10:30N 34°42' E 136°47'612.7
2018-Feb-14 10:00N 34°48' E 136°45'612.4
2018-Feb-14 09:30N 34°54' E 136°45'612.6
2018-Feb-14 09:00N 34°60' E 136°49'4 9.0
2018-Feb-14 08:30N 35°03' E 136°53'0 0.0
2018-Feb-14 08:00N 35°03' E 136°53'0 0.0
2018-Feb-14 07:30N 35°03' E 136°53'0 0.0
2018-Feb-14 07:00N 35°03' E 136°53'0 0.0
2018-Feb-14 06:30N 35°03' E 136°53'0 0.0
2018-Feb-14 06:00N 35°03' E 136°53'0 0.0
2018-Feb-14 05:30N 35°03' E 136°53'0 0.0
2018-Feb-14 05:00N 35°03' E 136°53'0 0.0
2018-Feb-14 04:30N 35°03' E 136°53'0 0.0
2018-Feb-14 04:00N 35°03' E 136°53'0 0.0
2018-Feb-14 03:30N 35°03' E 136°53'0 0.0
2018-Feb-14 03:00N 35°03' E 136°53'0 0.0
2018-Feb-14 02:30N 35°03' E 136°53'0 0.0
2018-Feb-14 02:00N 35°03' E 136°53'0 0.0
2018-Feb-14 01:30N 35°03' E 136°53'0 0.0
2018-Feb-14 01:00N 35°03' E 136°53'0 0.0
2018-Feb-14 00:30N 35°03' E 136°53'0 0.0
2018-Feb-14 00:00N 35°03' E 136°53'0 0.0
2018-Feb-13 23:30N 35°03' E 136°53'0 0.1
2018-Feb-13 23:00N 35°03' E 136°53'3 5.6
2018-Feb-13 22:30N 35°01' E 136°51'0 0.1
2018-Feb-13 22:00N 35°01' E 136°51'0 0.1
2018-Feb-13 21:30N 35°01' E 136°51'0 0.0
2018-Feb-13 21:00N 35°01' E 136°51'0 0.0
2018-Feb-13 20:30N 35°01' E 136°51'0 0.0
2018-Feb-13 20:00N 35°01' E 136°51'0 0.0
2018-Feb-13 19:30N 35°01' E 136°51'0 0.0
2018-Feb-13 19:00N 35°01' E 136°51'0 0.1
2018-Feb-13 18:30N 35°01' E 136°51'0 0.0
2018-Feb-13 18:00N 35°01' E 136°51'0 0.0
2018-Feb-13 17:30N 35°01' E 136°51'0 0.0
2018-Feb-13 17:00N 35°01' E 136°51'0 0.0
2018-Feb-13 16:30N 35°01' E 136°51'0 0.1
2018-Feb-13 16:00N 35°01' E 136°51'0 0.1
2018-Feb-13 15:30N 35°01' E 136°51'0 0.0
2018-Feb-13 15:00N 35°01' E 136°51'0 0.0
2018-Feb-13 14:30N 35°01' E 136°51'0 0.0
2018-Feb-13 14:00N 35°01' E 136°51'0 0.0
2018-Feb-13 13:30N 35°01' E 136°51'0 0.0
2018-Feb-13 13:00N 35°01' E 136°51'0 0.0
2018-Feb-13 12:30N 35°01' E 136°51'3 5.9
2018-Feb-13 12:00N 34°58' E 136°48'611.0
2018-Feb-13 11:30N 34°53' E 136°47'611.0
2018-Feb-13 11:00N 34°47' E 136°48'510.9
2018-Feb-13 10:30N 34°42' E 136°48'611.1
2018-Feb-13 10:00N 34°36' E 136°48'610.9
2018-Feb-13 09:29N 34°31' E 136°49'94 8.0
2018-Feb-12 21:47N 33°49' E 135°07'412.1
2018-Feb-12 21:29N 33°51' E 135°04'511.3
2018-Feb-12 21:00N 33°56' E 135°01'611.4
2018-Feb-12 20:30N 34°01' E 134°58'611.2
2018-Feb-12 20:00N 34°07' E 134°58'611.5
2018-Feb-12 19:29N 34°13' E 134°58'511.4
2018-Feb-12 19:00N 34°18' E 134°59'611.5
2018-Feb-12 18:30N 34°24' E 134°60'611.6
2018-Feb-12 18:00N 34°30' E 135°02'611.2
2018-Feb-12 17:30N 34°35' E 135°03'612.0
2018-Feb-12 17:00N 34°36' E 134°56'713.4
2018-Feb-12 16:31N 34°40' E 134°49'4 0.2
2018-Feb-11 22:32N 34°44' E 134°49'0 3.0
2018-Feb-11 22:25N 34°43' E 134°48'3 8.1
2018-Feb-11 22:00N 34°41' E 134°46'510.6
2018-Feb-11 21:30N 34°37' E 134°41'611.5
2018-Feb-11 21:00N 34°33' E 134°37'611.3
2018-Feb-11 20:30N 34°29' E 134°32'5 9.8
2018-Feb-11 20:00N 34°24' E 134°31'5 9.6
2018-Feb-11 19:30N 34°20' E 134°34'710.9
2018-Feb-11 18:53N 34°14' E 134°39'410.7
2018-Feb-11 18:30N 34°11' E 134°42'510.1
2018-Feb-11 18:00N 34°07' E 134°46'  
Track history (hours):
 
Tides and Currents Weather Stations Pressure Air Temp Water Temp Dewpoint Dewpoint Depression Visibility Wind Speed Wind Dir Waves Ship Positions

Kagoshima Kohaku No7

Last reported at 2018-Feb-21 17:54 UTC. Time now 2018-Feb-21 19:26 UTC.
Position N 33°49' E 135°05'.

Length 75 m; draft 2.7 m.

Type: Cargo ship. MMSI: 431008653.

Date/timePositionNaut miles runAvg speedWind from/ knotsBaromVisibWave heightAir tempDewpointWater temp
2018-Feb-21 17:54N 33°49' E 135°05'512.4
2018-Feb-21 17:30N 33°52' E 135°02'612.2
2018-Feb-21 17:00N 33°57' E 134°57'611.8
2018-Feb-21 16:30N 34°01' E 134°52'612.3
2018-Feb-21 15:59N 34°06' E 134°47'612.1
2018-Feb-21 15:28N 34°11' E 134°42'510.5
2018-Feb-21 15:00N 34°15' E 134°39'611.4
2018-Feb-21 14:30N 34°21' E 134°38'612.6
2018-Feb-21 14:00N 34°27' E 134°40'612.7
2018-Feb-21 13:30N 34°33' E 134°42'712.5
2018-Feb-21 12:59N 34°39' E 134°45'5 0.3
2018-Feb-20 19:20N 34°43' E 134°49'0 0.5
2018-Feb-20 19:00N 34°43' E 134°48'0 0.4
2018-Feb-20 18:29N 34°43' E 134°48'1 3.0
2018-Feb-20 18:00N 34°42' E 134°47'0 0.0
2018-Feb-20 17:30N 34°42' E 134°47'0 0.1
2018-Feb-20 17:00N 34°42' E 134°47'0 0.1
2018-Feb-20 16:30N 34°42' E 134°47'0 0.0
2018-Feb-20 16:01N 34°42' E 134°47'0 0.0
2018-Feb-20 15:30N 34°42' E 134°47'2 3.8
2018-Feb-20 15:00N 34°40' E 134°46'611.9
2018-Feb-20 14:30N 34°35' E 134°43'611.9
2018-Feb-20 14:00N 34°29' E 134°41'611.8
2018-Feb-20 13:31N 34°24' E 134°39'612.1
2018-Feb-20 13:00N 34°18' E 134°38'713.3
2018-Feb-20 12:28N 34°12' E 134°42'612.6
2018-Feb-20 12:00N 34°07' E 134°47'612.4
2018-Feb-20 11:29N 34°02' E 134°52'612.8
2018-Feb-20 11:01N 33°58' E 134°57'612.6
2018-Feb-20 10:30N 33°53' E 135°02'114 9.1
2018-Feb-19 21:54N 34°29' E 137°13'511.8
2018-Feb-19 21:30N 34°29' E 137°19'5911.2
2018-Feb-19 16:17N 34°35' E 138°30'511.6
2018-Feb-19 15:53N 34°35' E 138°35'511.4
2018-Feb-19 15:29N 34°35' E 138°41'611.8
2018-Feb-19 14:56N 34°35' E 138°48'510.8
2018-Feb-19 14:30N 34°36' E 138°54'710.4
2018-Feb-19 13:52N 34°39' E 139°01'412.2
2018-Feb-19 13:30N 34°43' E 139°04'612.9
2018-Feb-19 13:00N 34°48' E 139°09'912.1
2018-Feb-19 12:16N 34°55' E 139°16'411.8
2018-Feb-19 11:55N 34°57' E 139°20'511.5
2018-Feb-19 11:30N 34°60' E 139°25'611.2
2018-Feb-19 10:59N 35°03' E 139°31'611.8
2018-Feb-19 10:30N 35°05' E 139°37'612.4
2018-Feb-19 10:00N 35°09' E 139°43'611.8
2018-Feb-19 09:30N 35°14' E 139°46'611.7
2018-Feb-19 09:01N 35°20' E 139°43'611.1
2018-Feb-19 08:31N 35°25' E 139°44'611.7
2018-Feb-19 08:01N 35°29' E 139°50'611.7
2018-Feb-19 07:30N 35°33' E 139°54'612.0
2018-Feb-19 06:59N 35°38' E 139°59'3 0.1
2018-Feb-17 23:27N 35°41' E 139°58'4 7.2
2018-Feb-17 22:57N 35°37' E 139°58'511.2
2018-Feb-17 22:29N 35°33' E 139°55'511.2
2018-Feb-17 22:00N 35°28' E 139°51'611.1
2018-Feb-17 21:30N 35°24' E 139°46'510.5
2018-Feb-17 21:00N 35°19' E 139°44'5 9.9
2018-Feb-17 20:30N 35°15' E 139°47'510.0
2018-Feb-17 20:00N 35°10' E 139°46'510.3
2018-Feb-17 19:30N 35°05' E 139°43'510.6
2018-Feb-17 19:00N 35°02' E 139°38'1311.2
2018-Feb-17 17:52N 34°54' E 139°26'512.1
2018-Feb-17 17:29N 34°51' E 139°21'811.8
2018-Feb-17 16:50N 34°46' E 139°14'711.4
2018-Feb-17 16:14N 34°42' E 139°08'312.1
2018-Feb-17 15:59N 34°40' E 139°05'712.8
2018-Feb-17 15:26N 34°36' E 138°58'612.4
2018-Feb-17 14:59N 34°35' E 138°51'612.0
2018-Feb-17 14:29N 34°35' E 138°44'612.1
2018-Feb-17 13:58N 34°34' E 138°36'612.1
2018-Feb-17 13:30N 34°34' E 138°29'611.9
2018-Feb-17 12:59N 34°34' E 138°22'712.6
2018-Feb-17 12:27N 34°34' E 138°14'813.4
2018-Feb-17 11:53N 34°35' E 138°05'4212.4
2018-Feb-17 08:30N 34°35' E 137°14'3310.9
2018-Feb-17 05:28N 34°10' E 136°48'87 9.0
2018-Feb-16 19:50N 33°50' E 135°06'411.7
2018-Feb-16 19:30N 33°52' E 135°02'611.8
2018-Feb-16 18:59N 33°56' E 134°57'612.1
2018-Feb-16 18:30N 34°01' E 134°53'612.2
2018-Feb-16 18:00N 34°05' E 134°48'812.8
2018-Feb-16 17:25N 34°11' E 134°42'713.6
2018-Feb-16 16:54N 34°17' E 134°38'511.9
2018-Feb-16 16:31N 34°22' E 134°39'611.5
2018-Feb-16 16:00N 34°27' E 134°41'611.7
2018-Feb-16 15:30N 34°33' E 134°42'611.4
2018-Feb-16 15:00N 34°38' E 134°45'6 0.3
2018-Feb-15 18:12N 34°44' E 134°49'1 3.5
2018-Feb-15 17:59N 34°43' E 134°48'2 4.2
2018-Feb-15 17:30N 34°43' E 134°51'0 0.0
2018-Feb-15 09:13N 34°43' E 134°51'0 0.1
2018-Feb-15 09:00N 34°43' E 134°51'0 0.1
2018-Feb-15 08:30N 34°43' E 134°51'0 0.0
2018-Feb-15 08:00N 34°43' E 134°51'0 0.0
2018-Feb-15 07:30N 34°43' E 134°51'0 0.0
2018-Feb-15 07:00N 34°43' E 134°51'0 0.0
2018-Feb-15 06:30N 34°43' E 134°51'0 0.0
2018-Feb-15 06:00N 34°43' E 134°51'0 0.0
2018-Feb-15 05:30N 34°43' E 134°51'2 3.1
2018-Feb-15 05:00N 34°41' E 134°50'5 9.4
2018-Feb-15 04:30N 34°38' E 134°53'510.4
2018-Feb-15 04:00N 34°37' E 134°60'510.3
2018-Feb-15 03:31N 34°35' E 135°05'612.0
2018-Feb-15 03:01N 34°29' E 135°05'612.1
2018-Feb-15 02:31N 34°23' E 135°04'611.5
2018-Feb-15 02:01N 34°17' E 135°04'612.0
2018-Feb-15 01:31N 34°11' E 135°03'612.3
2018-Feb-15 01:00N 34°05' E 135°03'612.2
2018-Feb-15 00:30N 33°59' E 135°03'611.9
2018-Feb-15 00:00N 33°53' E 135°03'97 7.9
2018-Feb-14 11:39N 34°29' E 136°52'213.3
2018-Feb-14 11:30N 34°30' E 136°51'611.4
2018-Feb-14 11:00N 34°36' E 136°48'612.7
2018-Feb-14 10:30N 34°42' E 136°47'612.7
2018-Feb-14 10:00N 34°48' E 136°45'612.4
2018-Feb-14 09:30N 34°54' E 136°45'612.6
2018-Feb-14 09:00N 34°60' E 136°49'4 9.0
2018-Feb-14 08:30N 35°03' E 136°53'0 0.0
2018-Feb-14 08:00N 35°03' E 136°53'0 0.0
2018-Feb-14 07:30N 35°03' E 136°53'0 0.0
2018-Feb-14 07:00N 35°03' E 136°53'0 0.0
2018-Feb-14 06:30N 35°03' E 136°53'0 0.0
2018-Feb-14 06:00N 35°03' E 136°53'0 0.0
2018-Feb-14 05:30N 35°03' E 136°53'0 0.0
2018-Feb-14 05:00N 35°03' E 136°53'0 0.0
2018-Feb-14 04:30N 35°03' E 136°53'0 0.0
2018-Feb-14 04:00N 35°03' E 136°53'0 0.0
2018-Feb-14 03:30N 35°03' E 136°53'0 0.0
2018-Feb-14 03:00N 35°03' E 136°53'0 0.0
2018-Feb-14 02:30N 35°03' E 136°53'0 0.0
2018-Feb-14 02:00N 35°03' E 136°53'0 0.0
2018-Feb-14 01:30N 35°03' E 136°53'0 0.0
2018-Feb-14 01:00N 35°03' E 136°53'0 0.0
2018-Feb-14 00:30N 35°03' E 136°53'0 0.0
2018-Feb-14 00:00N 35°03' E 136°53'0 0.0
2018-Feb-13 23:30N 35°03' E 136°53'0 0.1
2018-Feb-13 23:00N 35°03' E 136°53'3 5.6
2018-Feb-13 22:30N 35°01' E 136°51'0 0.1
2018-Feb-13 22:00N 35°01' E 136°51'0 0.1
2018-Feb-13 21:30N 35°01' E 136°51'0 0.0
2018-Feb-13 21:00N 35°01' E 136°51'0 0.0
2018-Feb-13 20:30N 35°01' E 136°51'0 0.0
2018-Feb-13 20:00N 35°01' E 136°51'0 0.0
2018-Feb-13 19:30N 35°01' E 136°51'0 0.0
2018-Feb-13 19:00N 35°01' E 136°51'0 0.1
2018-Feb-13 18:30N 35°01' E 136°51'0 0.0
2018-Feb-13 18:00N 35°01' E 136°51'0 0.0
2018-Feb-13 17:30N 35°01' E 136°51'0 0.0
2018-Feb-13 17:00N 35°01' E 136°51'0 0.0
2018-Feb-13 16:30N 35°01' E 136°51'0 0.1
2018-Feb-13 16:00N 35°01' E 136°51'0 0.1
2018-Feb-13 15:30N 35°01' E 136°51'0 0.0
2018-Feb-13 15:00N 35°01' E 136°51'0 0.0
2018-Feb-13 14:30N 35°01' E 136°51'0 0.0
2018-Feb-13 14:00N 35°01' E 136°51'0 0.0
2018-Feb-13 13:30N 35°01' E 136°51'0 0.0
2018-Feb-13 13:00N 35°01' E 136°51'0 0.0
2018-Feb-13 12:30N 35°01' E 136°51'3 5.9
2018-Feb-13 12:00N 34°58' E 136°48'611.0
2018-Feb-13 11:30N 34°53' E 136°47'611.0
2018-Feb-13 11:00N 34°47' E 136°48'510.9
2018-Feb-13 10:30N 34°42' E 136°48'611.1
2018-Feb-13 10:00N 34°36' E 136°48'610.9
2018-Feb-13 09:29N 34°31' E 136°49'94 8.0
2018-Feb-12 21:47N 33°49' E 135°07'412.1
2018-Feb-12 21:29N 33°51' E 135°04'511.3
2018-Feb-12 21:00N 33°56' E 135°01'611.4
2018-Feb-12 20:30N 34°01' E 134°58'611.2
2018-Feb-12 20:00N 34°07' E 134°58'611.5
2018-Feb-12 19:29N 34°13' E 134°58'511.4
2018-Feb-12 19:00N 34°18' E 134°59'611.5
2018-Feb-12 18:30N 34°24' E 134°60'611.6
2018-Feb-12 18:00N 34°30' E 135°02'611.2
2018-Feb-12 17:30N 34°35' E 135°03'612.0
2018-Feb-12 17:00N 34°36' E 134°56'713.4
2018-Feb-12 16:31N 34°40' E 134°49'4 0.2
2018-Feb-11 22:32N 34°44' E 134°49'0 3.0
2018-Feb-11 22:25N 34°43' E 134°48'3 8.1
2018-Feb-11 22:00N 34°41' E 134°46'510.6
2018-Feb-11 21:30N 34°37' E 134°41'611.5
2018-Feb-11 21:00N 34°33' E 134°37'611.3
2018-Feb-11 20:30N 34°29' E 134°32'5 9.8
2018-Feb-11 20:00N 34°24' E 134°31'5 9.6
2018-Feb-11 19:30N 34°20' E 134°34'710.9
2018-Feb-11 18:53N 34°14' E 134°39'410.7
2018-Feb-11 18:30N 34°11' E 134°42'510.1
2018-Feb-11 18:00N 34°07' E 134°46'  

Dump ship's entire track history